sensor_id;sensor_type;location;lat;lon;timestamp;pressure;altitude;pressure_sealevel;temperature;humidity
54666;BME280;40566;50.006;36.180;2024-03-06T00:04:43;99964.44;;;1.11;55.30
54666;BME280;40566;50.006;36.180;2024-03-06T00:10:03;99969.44;;;1.06;55.59
54666;BME280;40566;50.006;36.180;2024-03-06T00:15:23;99965.19;;;1.05;55.55
54666;BME280;40566;50.006;36.180;2024-03-06T00:20:43;99966.06;;;1.07;55.53
54666;BME280;40566;50.006;36.180;2024-03-06T00:26:03;99965.97;;;1.03;55.76
54666;BME280;40566;50.006;36.180;2024-03-06T00:31:23;99977.75;;;0.93;56.04
54666;BME280;40566;50.006;36.180;2024-03-06T00:36:45;99963.25;;;0.90;56.18
54666;BME280;40566;50.006;36.180;2024-03-06T00:42:04;99959.03;;;0.92;56.28
54666;BME280;40566;50.006;36.180;2024-03-06T00:47:23;99958.25;;;0.96;56.31
54666;BME280;40566;50.006;36.180;2024-03-06T00:52:44;99957.47;;;0.99;56.31
54666;BME280;40566;50.006;36.180;2024-03-06T00:58:03;99970.13;;;0.96;56.37
54666;BME280;40566;50.006;36.180;2024-03-06T01:03:23;99963.19;;;0.86;56.56
54666;BME280;40566;50.006;36.180;2024-03-06T01:08:41;99969.91;;;0.81;56.71
54666;BME280;40566;50.006;36.180;2024-03-06T01:14:01;99967.19;;;0.68;57.05
54666;BME280;40566;50.006;36.180;2024-03-06T01:19:21;99976.31;;;0.55;57.45
54666;BME280;40566;50.006;36.180;2024-03-06T01:24:39;99983.06;;;0.53;57.45
54666;BME280;40566;50.006;36.180;2024-03-06T01:29:58;99987.22;;;0.48;57.65
54666;BME280;40566;50.006;36.180;2024-03-06T01:35:18;99983.72;;;0.43;57.59
54666;BME280;40566;50.006;36.180;2024-03-06T01:40:37;99991.47;;;0.49;57.56
54666;BME280;40566;50.006;36.180;2024-03-06T01:45:56;100001.94;;;0.66;57.29
54666;BME280;40566;50.006;36.180;2024-03-06T01:51:15;99997.84;;;0.76;57.17
54666;BME280;40566;50.006;36.180;2024-03-06T01:56:35;100002.31;;;0.91;56.92
54666;BME280;40566;50.006;36.180;2024-03-06T02:01:56;100007.41;;;0.89;57.12
54666;BME280;40566;50.006;36.180;2024-03-06T02:07:16;100015.81;;;0.84;57.34
54666;BME280;40566;50.006;36.180;2024-03-06T02:12:36;100017.56;;;0.88;57.34
54666;BME280;40566;50.006;36.180;2024-03-06T02:17:55;100013.41;;;0.94;57.36
54666;BME280;40566;50.006;36.180;2024-03-06T02:23:14;100020.28;;;1.00;57.23
54666;BME280;40566;50.006;36.180;2024-03-06T02:28:36;100012.63;;;0.97;57.46
54666;BME280;40566;50.006;36.180;2024-03-06T02:33:55;100021.88;;;0.92;57.62
54666;BME280;40566;50.006;36.180;2024-03-06T02:39:14;100016.78;;;0.92;57.56
54666;BME280;40566;50.006;36.180;2024-03-06T02:44:33;100022.56;;;0.82;57.86
54666;BME280;40566;50.006;36.180;2024-03-06T02:49:52;100030.22;;;0.85;57.91
54666;BME280;40566;50.006;36.180;2024-03-06T02:55:11;100025.13;;;0.85;58.06
54666;BME280;40566;50.006;36.180;2024-03-06T03:00:30;100040.41;;;0.83;58.24
54666;BME280;40566;50.006;36.180;2024-03-06T03:05:50;100031.91;;;0.83;58.16
54666;BME280;40566;50.006;36.180;2024-03-06T03:11:09;100040.41;;;0.83;58.25
54666;BME280;40566;50.006;36.180;2024-03-06T03:16:28;100041.41;;;0.93;58.02
54666;BME280;40566;50.006;36.180;2024-03-06T03:21:48;100048.75;;;0.74;58.56
54666;BME280;40566;50.006;36.180;2024-03-06T03:27:07;100054.59;;;0.70;58.65
54666;BME280;40566;50.006;36.180;2024-03-06T03:32:26;100056.34;;;0.71;58.68
54666;BME280;40566;50.006;36.180;2024-03-06T03:37:45;100063.03;;;0.66;58.75
54666;BME280;40566;50.006;36.180;2024-03-06T03:43:04;100064.75;;;0.67;58.74
54666;BME280;40566;50.006;36.180;2024-03-06T03:48:25;100070.81;;;0.74;58.58
54666;BME280;40566;50.006;36.180;2024-03-06T03:53:44;100074.13;;;0.70;58.79
54666;BME280;40566;50.006;36.180;2024-03-06T03:59:03;100082.53;;;0.66;58.84
54666;BME280;40566;50.006;36.180;2024-03-06T04:04:22;100085.16;;;0.70;58.84
54666;BME280;40566;50.006;36.180;2024-03-06T04:09:41;100082.00;;;0.84;58.65
54666;BME280;40566;50.006;36.180;2024-03-06T04:15:00;100091.31;;;0.82;58.85
54666;BME280;40566;50.006;36.180;2024-03-06T04:20:19;100084.34;;;0.71;58.97
54666;BME280;40566;50.006;36.180;2024-03-06T04:25:38;100099.50;;;0.67;59.29
54666;BME280;40566;50.006;36.180;2024-03-06T04:31:00;100093.47;;;0.60;59.42
54666;BME280;40566;50.006;36.180;2024-03-06T04:36:19;100100.31;;;0.64;59.36
54666;BME280;40566;50.006;36.180;2024-03-06T04:41:38;100107.88;;;0.59;59.41
54666;BME280;40566;50.006;36.180;2024-03-06T04:46:57;100105.34;;;0.61;59.34
54666;BME280;40566;50.006;36.180;2024-03-06T04:52:16;100110.78;;;0.79;58.93
54666;BME280;40566;50.006;36.180;2024-03-06T04:57:34;100109.94;;;0.79;59.12
54666;BME280;40566;50.006;36.180;2024-03-06T05:02:54;100114.22;;;0.82;59.20
54666;BME280;40566;50.006;36.180;2024-03-06T05:08:14;100124.31;;;0.75;59.48
54666;BME280;40566;50.006;36.180;2024-03-06T05:13:33;100123.56;;;0.83;59.37
54666;BME280;40566;50.006;36.180;2024-03-06T05:18:52;100130.31;;;0.79;59.50
54666;BME280;40566;50.006;36.180;2024-03-06T05:24:11;100131.09;;;0.76;59.58
54666;BME280;40566;50.006;36.180;2024-03-06T05:29:30;100129.59;;;0.88;59.28
54666;BME280;40566;50.006;36.180;2024-03-06T05:34:49;100124.47;;;0.86;59.55
54666;BME280;40566;50.006;36.180;2024-03-06T05:40:08;100130.59;;;0.96;59.39
54666;BME280;40566;50.006;36.180;2024-03-06T05:45:28;100127.16;;;0.94;59.50
54666;BME280;40566;50.006;36.180;2024-03-06T05:50:47;100132.06;;;0.83;59.96
54666;BME280;40566;50.006;36.180;2024-03-06T05:56:06;100133.94;;;0.93;59.67
54666;BME280;40566;50.006;36.180;2024-03-06T06:01:25;100142.44;;;0.94;59.62
54666;BME280;40566;50.006;36.180;2024-03-06T06:06:45;100143.22;;;0.90;59.87
54666;BME280;40566;50.006;36.180;2024-03-06T06:12:04;100150.69;;;0.81;60.08
54666;BME280;40566;50.006;36.180;2024-03-06T06:17:23;100151.03;;;0.99;59.86
54666;BME280;40566;50.006;36.180;2024-03-06T06:22:42;100163.09;;;1.09;59.62
54666;BME280;40566;50.006;36.180;2024-03-06T06:28:01;100163.91;;;1.08;59.75
54666;BME280;40566;50.006;36.180;2024-03-06T06:33:20;100171.19;;;0.88;60.05
54666;BME280;40566;50.006;36.180;2024-03-06T06:38:40;100178.66;;;0.77;60.46
54666;BME280;40566;50.006;36.180;2024-03-06T06:43:58;100183.13;;;0.89;60.06
54666;BME280;40566;50.006;36.180;2024-03-06T06:49:17;100177.28;;;0.95;59.89
54666;BME280;40566;50.006;36.180;2024-03-06T06:54:38;100184.19;;;1.02;59.79
54666;BME280;40566;50.006;36.180;2024-03-06T06:59:57;100192.81;;;1.10;59.75
54666;BME280;40566;50.006;36.180;2024-03-06T07:05:16;100192.88;;;1.13;59.61
54666;BME280;40566;50.006;36.180;2024-03-06T07:10:35;100203.00;;;1.10;59.85
54666;BME280;40566;50.006;36.180;2024-03-06T07:15:54;100204.41;;;0.93;60.10
54666;BME280;40566;50.006;36.180;2024-03-06T07:21:13;100206.69;;;0.81;60.28
54666;BME280;40566;50.006;36.180;2024-03-06T07:26:32;100213.38;;;0.74;60.28
54666;BME280;40566;50.006;36.180;2024-03-06T07:31:52;100209.91;;;0.70;60.34
54666;BME280;40566;50.006;36.180;2024-03-06T07:37:12;100210.06;;;0.78;60.06
54666;BME280;40566;50.006;36.180;2024-03-06T07:42:33;100211.38;;;1.03;59.44
54666;BME280;40566;50.006;36.180;2024-03-06T07:47:52;100205.66;;;1.15;59.28
54666;BME280;40566;50.006;36.180;2024-03-06T07:53:10;100220.69;;;1.01;59.54
54666;BME280;40566;50.006;36.180;2024-03-06T07:58:29;100224.06;;;1.00;59.50
54666;BME280;40566;50.006;36.180;2024-03-06T08:03:50;100227.34;;;0.94;59.61
54666;BME280;40566;50.006;36.180;2024-03-06T08:09:09;100225.81;;;1.04;59.39
54666;BME280;40566;50.006;36.180;2024-03-06T08:14:28;100233.94;;;1.30;58.94
54666;BME280;40566;50.006;36.180;2024-03-06T08:19:47;100229.75;;;1.34;58.80
54666;BME280;40566;50.006;36.180;2024-03-06T08:25:11;100236.88;;;1.53;58.48
54666;BME280;40566;50.006;36.180;2024-03-06T08:30:30;100238.47;;;1.47;58.60
54666;BME280;40566;50.006;36.180;2024-03-06T08:35:49;100232.53;;;1.46;58.50
54666;BME280;40566;50.006;36.180;2024-03-06T08:41:08;100241.09;;;1.51;58.52
54666;BME280;40566;50.006;36.180;2024-03-06T08:46:27;100240.31;;;1.07;59.50
54666;BME280;40566;50.006;36.180;2024-03-06T08:51:46;100240.56;;;1.21;59.03
54666;BME280;40566;50.006;36.180;2024-03-06T08:57:05;100239.28;;;0.98;59.33
54666;BME280;40566;50.006;36.180;2024-03-06T09:02:24;100239.28;;;0.97;59.26
54666;BME280;40566;50.006;36.180;2024-03-06T09:07:44;100245.44;;;1.08;59.20
54666;BME280;40566;50.006;36.180;2024-03-06T09:13:04;100245.69;;;1.21;58.92
54666;BME280;40566;50.006;36.180;2024-03-06T09:18:23;100244.59;;;1.56;58.14
54666;BME280;40566;50.006;36.180;2024-03-06T09:23:42;100249.22;;;1.81;57.58
54666;BME280;40566;50.006;36.180;2024-03-06T09:29:01;100245.31;;;2.03;57.48
54666;BME280;40566;50.006;36.180;2024-03-06T09:34:20;100249.72;;;2.11;57.31
54666;BME280;40566;50.006;36.180;2024-03-06T09:39:40;100252.00;;;1.94;57.78
54666;BME280;40566;50.006;36.180;2024-03-06T09:44:59;100252.81;;;1.93;57.82
54666;BME280;40566;50.006;36.180;2024-03-06T09:50:23;100260.78;;;2.13;57.42
54666;BME280;40566;50.006;36.180;2024-03-06T09:55:46;100260.75;;;2.12;57.43
54666;BME280;40566;50.006;36.180;2024-03-06T10:01:07;100261.34;;;1.94;57.86
54666;BME280;40566;50.006;36.180;2024-03-06T10:06:26;100264.97;;;2.08;57.60
54666;BME280;40566;50.006;36.180;2024-03-06T10:11:45;100257.97;;;1.96;57.67
54666;BME280;40566;50.006;36.180;2024-03-06T10:17:04;100254.59;;;1.99;57.61
54666;BME280;40566;50.006;36.180;2024-03-06T10:22:23;100258.81;;;1.97;57.62
54666;BME280;40566;50.006;36.180;2024-03-06T10:27:45;100261.47;;;2.03;57.45
54666;BME280;40566;50.006;36.180;2024-03-06T10:33:04;100259.00;;;2.09;57.25
54666;BME280;40566;50.006;36.180;2024-03-06T10:38:29;100257.59;;;2.28;56.88
54666;BME280;40566;50.006;36.180;2024-03-06T10:43:52;100260.00;;;2.17;57.12
54666;BME280;40566;50.006;36.180;2024-03-06T10:49:13;100260.25;;;2.36;56.87
54666;BME280;40566;50.006;36.180;2024-03-06T10:54:34;100257.66;;;2.33;56.89
54666;BME280;40566;50.006;36.180;2024-03-06T10:59:57;100256.06;;;2.41;56.81
54666;BME280;40566;50.006;36.180;2024-03-06T11:05:19;100261.94;;;2.35;57.01
54666;BME280;40566;50.006;36.180;2024-03-06T11:10:41;100258.44;;;2.27;57.06
54666;BME280;40566;50.006;36.180;2024-03-06T11:16:01;100257.44;;;2.19;57.29
54666;BME280;40566;50.006;36.180;2024-03-06T11:26:45;100266.34;;;2.46;56.55
54666;BME280;40566;50.006;36.180;2024-03-06T11:32:06;100261.19;;;2.41;56.58
54666;BME280;40566;50.006;36.180;2024-03-06T11:37:29;100262.06;;;2.45;56.50
54666;BME280;40566;50.006;36.180;2024-03-06T11:42:48;100271.94;;;2.20;56.90
54666;BME280;40566;50.006;36.180;2024-03-06T11:48:08;100265.09;;;2.17;56.85
54666;BME280;40566;50.006;36.180;2024-03-06T11:53:35;100264.91;;;2.04;57.21
54666;BME280;40566;50.006;36.180;2024-03-06T11:58:56;100267.56;;;2.11;56.93
54666;BME280;40566;50.006;36.180;2024-03-06T12:04:15;100260.88;;;2.21;56.75
54666;BME280;40566;50.006;36.180;2024-03-06T12:09:35;100262.84;;;2.39;56.29
54666;BME280;40566;50.006;36.180;2024-03-06T12:15:15;100251.84;;;2.45;55.93
54666;BME280;40566;50.006;36.180;2024-03-06T12:20:35;100263.47;;;2.23;56.59
54666;BME280;40566;50.006;36.180;2024-03-06T12:26:06;100257.34;;;2.10;56.71
54666;BME280;40566;50.006;36.180;2024-03-06T12:31:27;100249.06;;;2.26;56.37
54666;BME280;40566;50.006;36.180;2024-03-06T12:36:47;100248.47;;;2.46;55.96
54666;BME280;40566;50.006;36.180;2024-03-06T12:42:06;100245.00;;;2.39;56.10
54666;BME280;40566;50.006;36.180;2024-03-06T12:47:25;100253.44;;;2.36;56.24
54666;BME280;40566;50.006;36.180;2024-03-06T12:52:44;100252.78;;;2.50;55.97
54666;BME280;40566;50.006;36.180;2024-03-06T12:58:04;100252.97;;;2.65;55.57
54666;BME280;40566;50.006;36.180;2024-03-06T13:03:24;100244.69;;;2.83;55.22
54666;BME280;40566;50.006;36.180;2024-03-06T13:08:43;100246.31;;;2.78;55.29
54666;BME280;40566;50.006;36.180;2024-03-06T13:14:02;100243.53;;;2.60;55.90
54666;BME280;40566;50.006;36.180;2024-03-06T13:19:21;100236.63;;;2.52;55.96
54666;BME280;40566;50.006;36.180;2024-03-06T13:24:41;100242.63;;;2.56;55.58
54666;BME280;40566;50.006;36.180;2024-03-06T13:30:00;100238.34;;;2.52;55.81
54666;BME280;40566;50.006;36.180;2024-03-06T13:35:20;100236.53;;;2.43;55.94
54666;BME280;40566;50.006;36.180;2024-03-06T13:40:38;100243.88;;;2.23;56.23
54666;BME280;40566;50.006;36.180;2024-03-06T13:45:58;100254.59;;;1.99;56.56
54666;BME280;40566;50.006;36.180;2024-03-06T13:51:17;100247.66;;;1.89;56.74
54666;BME280;40566;50.006;36.180;2024-03-06T13:56:36;100255.44;;;1.96;56.21
54666;BME280;40566;50.006;36.180;2024-03-06T14:01:55;100252.06;;;1.97;55.99
54666;BME280;40566;50.006;36.180;2024-03-06T14:07:14;100261.31;;;1.92;56.14
54666;BME280;40566;50.006;36.180;2024-03-06T14:12:34;100261.25;;;1.88;56.20
54666;BME280;40566;50.006;36.180;2024-03-06T14:17:54;100268.13;;;1.92;56.05
54666;BME280;40566;50.006;36.180;2024-03-06T14:23:13;100262.81;;;1.79;56.14
54666;BME280;40566;50.006;36.180;2024-03-06T14:28:32;100266.78;;;1.64;56.54
54666;BME280;40566;50.006;36.180;2024-03-06T14:33:51;100271.84;;;1.61;56.41
54666;BME280;40566;50.006;36.180;2024-03-06T14:39:12;100281.72;;;1.42;56.67
54666;BME280;40566;50.006;36.180;2024-03-06T14:44:33;100284.00;;;1.27;56.79
54666;BME280;40566;50.006;36.180;2024-03-06T14:49:52;100278.88;;;1.25;56.67
54666;BME280;40566;50.006;36.180;2024-03-06T14:55:12;100280.09;;;1.00;56.91
54666;BME280;40566;50.006;36.180;2024-03-06T15:00:31;100282.31;;;0.85;57.15
54666;BME280;40566;50.006;36.180;2024-03-06T15:05:50;100288.91;;;0.73;57.13
54666;BME280;40566;50.006;36.180;2024-03-06T15:11:09;100291.94;;;0.57;57.05
54666;BME280;40566;50.006;36.180;2024-03-06T15:16:30;100293.09;;;0.33;57.44
54666;BME280;40566;50.006;36.180;2024-03-06T15:21:49;100303.00;;;0.21;57.53
54666;BME280;40566;50.006;36.180;2024-03-06T15:27:08;100301.56;;;-0.04;57.77
54666;BME280;40566;50.006;36.180;2024-03-06T15:32:27;100301.31;;;-0.15;57.80
54666;BME280;40566;50.006;36.180;2024-03-06T15:37:46;100309.56;;;-0.25;57.77
54666;BME280;40566;50.006;36.180;2024-03-06T15:43:05;100306.91;;;-0.28;57.73
54666;BME280;40566;50.006;36.180;2024-03-06T15:48:24;100313.78;;;-0.26;57.19
54666;BME280;40566;50.006;36.180;2024-03-06T15:53:43;100316.31;;;-0.26;57.35
54666;BME280;40566;50.006;36.180;2024-03-06T15:59:02;100322.16;;;-0.28;57.23
54666;BME280;40566;50.006;36.180;2024-03-06T16:04:22;100325.44;;;-0.32;57.33
54666;BME280;40566;50.006;36.180;2024-03-06T16:09:41;100328.97;;;-0.27;57.24
54666;BME280;40566;50.006;36.180;2024-03-06T16:15:01;100336.66;;;-0.24;57.07
54666;BME280;40566;50.006;36.180;2024-03-06T16:20:20;100337.56;;;-0.22;56.92
54666;BME280;40566;50.006;36.180;2024-03-06T16:25:39;100344.44;;;-0.19;57.04
54666;BME280;40566;50.006;36.180;2024-03-06T16:30:59;100340.25;;;-0.17;57.01
54666;BME280;40566;50.006;36.180;2024-03-06T16:36:17;100331.84;;;-0.15;56.89
54666;BME280;40566;50.006;36.180;2024-03-06T16:41:36;100337.06;;;-0.09;56.74
54666;BME280;40566;50.006;36.180;2024-03-06T16:46:55;100343.00;;;-0.10;56.83
54666;BME280;40566;50.006;36.180;2024-03-06T16:52:14;100342.94;;;-0.11;56.95
54666;BME280;40566;50.006;36.180;2024-03-06T16:57:33;100360.09;;;-0.03;57.05
54666;BME280;40566;50.006;36.180;2024-03-06T17:02:52;100351.84;;;0.06;56.70
54666;BME280;40566;50.006;36.180;2024-03-06T17:08:14;100353.56;;;0.07;56.63
54666;BME280;40566;50.006;36.180;2024-03-06T17:13:33;100362.13;;;0.11;56.76
54666;BME280;40566;50.006;36.180;2024-03-06T17:18:56;100357.03;;;0.11;56.69
54666;BME280;40566;50.006;36.180;2024-03-06T17:24:21;100357.03;;;0.11;56.64
54666;BME280;40566;50.006;36.180;2024-03-06T17:29:40;100365.31;;;0.02;57.06
54666;BME280;40566;50.006;36.180;2024-03-06T17:34:59;100366.16;;;0.03;56.99
54666;BME280;40566;50.006;36.180;2024-03-06T17:40:19;100376.41;;;0.06;56.87
54666;BME280;40566;50.006;36.180;2024-03-06T17:45:38;100373.81;;;0.03;56.82
54666;BME280;40566;50.006;36.180;2024-03-06T17:50:58;100375.44;;;0.01;57.10
54666;BME280;40566;50.006;36.180;2024-03-06T17:56:17;100378.78;;;-0.01;56.97
54666;BME280;40566;50.006;36.180;2024-03-06T18:01:36;100387.16;;;-0.05;57.18
54666;BME280;40566;50.006;36.180;2024-03-06T18:06:55;100390.56;;;-0.06;57.13
54666;BME280;40566;50.006;36.180;2024-03-06T18:12:14;100402.28;;;-0.11;57.12
54666;BME280;40566;50.006;36.180;2024-03-06T18:17:33;100410.56;;;-0.18;57.49
54666;BME280;40566;50.006;36.180;2024-03-06T18:22:52;100402.81;;;-0.23;57.21
54666;BME280;40566;50.006;36.180;2024-03-06T18:28:13;100409.78;;;-0.15;57.10
54666;BME280;40566;50.006;36.180;2024-03-06T18:33:32;100409.09;;;-0.10;56.90
54666;BME280;40566;50.006;36.180;2024-03-06T18:38:51;100420.94;;;-0.10;56.86
54666;BME280;40566;50.006;36.180;2024-03-06T18:44:10;100419.00;;;-0.19;56.95
54666;BME280;40566;50.006;36.180;2024-03-06T18:49:30;100424.75;;;-0.26;57.10
54666;BME280;40566;50.006;36.180;2024-03-06T18:54:49;100426.38;;;-0.28;56.90
54666;BME280;40566;50.006;36.180;2024-03-06T19:00:09;100435.66;;;-0.30;57.07
54666;BME280;40566;50.006;36.180;2024-03-06T19:05:30;100435.59;;;-0.33;57.05
54666;BME280;40566;50.006;36.180;2024-03-06T19:10:49;100433.06;;;-0.32;57.00
54666;BME280;40566;50.006;36.180;2024-03-06T19:16:08;100437.22;;;-0.35;56.92
54666;BME280;40566;50.006;36.180;2024-03-06T19:21:28;100444.38;;;-0.52;57.36
54666;BME280;40566;50.006;36.180;2024-03-06T19:26:48;100446.78;;;-0.57;57.16
54666;BME280;40566;50.006;36.180;2024-03-06T19:32:07;100453.22;;;-0.68;57.30
54666;BME280;40566;50.006;36.180;2024-03-06T19:37:29;100448.94;;;-0.69;57.21
54666;BME280;40566;50.006;36.180;2024-03-06T19:42:50;100437.97;;;-0.68;57.16
54666;BME280;40566;50.006;36.180;2024-03-06T19:48:10;100447.38;;;-0.66;57.12
54666;BME280;40566;50.006;36.180;2024-03-06T19:53:33;100448.38;;;-0.61;56.98
54666;BME280;40566;50.006;36.180;2024-03-06T19:58:53;100449.50;;;-0.51;56.94
54666;BME280;40566;50.006;36.180;2024-03-06T20:04:12;100445.59;;;-0.38;56.57
54666;BME280;40566;50.006;36.180;2024-03-06T20:09:31;100454.69;;;-0.46;56.64
54666;BME280;40566;50.006;36.180;2024-03-06T20:14:50;100454.56;;;-0.51;56.99
54666;BME280;40566;50.006;36.180;2024-03-06T20:20:10;100449.56;;;-0.48;56.73
54666;BME280;40566;50.006;36.180;2024-03-06T20:25:33;100447.00;;;-0.49;56.86
54666;BME280;40566;50.006;36.180;2024-03-06T20:30:52;100451.19;;;-0.51;56.88
54666;BME280;40566;50.006;36.180;2024-03-06T20:36:11;100450.41;;;-0.49;56.86
54666;BME280;40566;50.006;36.180;2024-03-06T20:41:30;100451.03;;;-0.56;56.95
54666;BME280;40566;50.006;36.180;2024-03-06T20:46:49;100448.81;;;-0.45;56.76
54666;BME280;40566;50.006;36.180;2024-03-06T20:52:08;100446.56;;;-0.34;56.56
54666;BME280;40566;50.006;36.180;2024-03-06T20:57:28;100444.91;;;-0.32;56.53
54666;BME280;40566;50.006;36.180;2024-03-06T21:02:49;100435.94;;;-0.51;56.77
54666;BME280;40566;50.006;36.180;2024-03-06T21:08:08;100443.50;;;-0.53;56.78
54666;BME280;40566;50.006;36.180;2024-03-06T21:13:27;100440.66;;;-0.64;57.02
54666;BME280;40566;50.006;36.180;2024-03-06T21:18:46;100440.13;;;-0.52;56.77
54666;BME280;40566;50.006;36.180;2024-03-06T21:24:05;100441.88;;;-0.51;56.79
54666;BME280;40566;50.006;36.180;2024-03-06T21:29:26;100445.16;;;-0.55;56.86
54666;BME280;40566;50.006;36.180;2024-03-06T21:34:46;100439.34;;;-0.51;56.74
54666;BME280;40566;50.006;36.180;2024-03-06T21:40:05;100450.34;;;-0.50;56.69
54666;BME280;40566;50.006;36.180;2024-03-06T21:45:27;100449.41;;;-0.54;56.81
54666;BME280;40566;50.006;36.180;2024-03-06T21:50:46;100460.13;;;-0.64;57.09
54666;BME280;40566;50.006;36.180;2024-03-06T21:56:07;100450.06;;;-0.61;56.88
54666;BME280;40566;50.006;36.180;2024-03-06T22:01:29;100456.25;;;-0.51;57.04
54666;BME280;40566;50.006;36.180;2024-03-06T22:06:48;100464.91;;;-0.45;56.80
54666;BME280;40566;50.006;36.180;2024-03-06T22:12:07;100450.47;;;-0.46;56.78
54666;BME280;40566;50.006;36.180;2024-03-06T22:17:27;100453.97;;;-0.42;56.73
54666;BME280;40566;50.006;36.180;2024-03-06T22:22:47;100451.38;;;-0.44;56.82
54666;BME280;40566;50.006;36.180;2024-03-06T22:28:06;100452.22;;;-0.45;57.01
54666;BME280;40566;50.006;36.180;2024-03-06T22:33:28;100448.03;;;-0.43;56.82
54666;BME280;40566;50.006;36.180;2024-03-06T22:38:47;100445.22;;;-0.52;56.85
54666;BME280;40566;50.006;36.180;2024-03-06T22:44:06;100446.16;;;-0.48;56.75
54666;BME280;40566;50.006;36.180;2024-03-06T22:49:25;100447.28;;;-0.38;56.67
54666;BME280;40566;50.006;36.180;2024-03-06T22:54:45;100444.84;;;-0.35;56.69
54666;BME280;40566;50.006;36.180;2024-03-06T23:00:04;100439.03;;;-0.31;56.77
54666;BME280;40566;50.006;36.180;2024-03-06T23:05:26;100445.97;;;-0.24;56.75
54666;BME280;40566;50.006;36.180;2024-03-06T23:10:46;100452.13;;;-0.16;56.67
54666;BME280;40566;50.006;36.180;2024-03-06T23:16:05;100438.56;;;-0.16;56.71
54666;BME280;40566;50.006;36.180;2024-03-06T23:21:24;100437.81;;;-0.12;56.70
54666;BME280;40566;50.006;36.180;2024-03-06T23:26:44;100434.53;;;-0.08;56.58
54666;BME280;40566;50.006;36.180;2024-03-06T23:32:03;100433.72;;;-0.07;56.67
54666;BME280;40566;50.006;36.180;2024-03-06T23:37:22;100428.59;;;-0.09;56.64
54666;BME280;40566;50.006;36.180;2024-03-06T23:42:42;100426.91;;;-0.10;56.93
54666;BME280;40566;50.006;36.180;2024-03-06T23:48:02;100420.06;;;-0.11;56.77
54666;BME280;40566;50.006;36.180;2024-03-06T23:53:21;100415.19;;;-0.03;56.83
54666;BME280;40566;50.006;36.180;2024-03-06T23:58:40;100403.38;;;-0.01;56.64
